Terminal Aerodrome Forecast
Issued by NWS Charleston, WV

Current Version | Previous Version | Graphics & Text | Print | Product List | Glossary On
Versions: 1 2 3 4 5 6 7 8 9 10 11 12 13 14 15 16 17 18 19 20 21 22 23
000
FTUS41 KRLX 261740
TAFCRW
TAF
KCRW 261740Z 2618/2718 28013G22KT P6SM BKN040
     FM262300 25005KT P6SM FEW250
     FM270500 17004KT P6SM SCT080
     FM270900 21008KT P6SM BKN050
     FM271400 25007KT P6SM BKN025
     FM271700 26007KT P6SM SHRA VCTS BKN025CB=

USA.gov is the U.S. government's official web portal to all federal, state and local government web resources and services.